Norway, IA (52318)

8:32 PM CDT on May 24, 2015 (GMT -0500)
Ridgeview Estates | | Change Station
CLOSE
Current Station
Personal Weather Station
Location: Atkins, IA
Elevation: 860 ft
Nearby Weather Stations

Elev 860 ft 41.99 °N, 91.85 °W | Updated 25 seconds ago

Mostly Cloudy
Mostly Cloudy
67.3 °F
Feels Like 67.3 °F
N
0.5
Wind Variable Wind from SSE
Gusts 3.1 mph

Today
High -- | Low -- °F
--% Chance of Precip.
Yesterday
High -- | Low -- °F
Precip. -- in
5:39 AM 8:29 PM
Waxing Crescent, 44% visible
Pressure 29.81 in
Visibility 10.0 miles
Clouds Mostly Cloudy 4800 ft
Dew Point 65 °F
Humidity 93%
Rainfall 0.66 in
Snow Depth Not available.
UV 0 out of 12
Pollen 4.30 out of 12
Air Quality Not available.
Flu Activity Sporadic
METAR KCID 250052Z 14006KT 10SM BKN048 19/19 A2981 RMK AO2 RAE12 SLP092 P0000 T01940189

More Conditions Fewer Conditions

Pressure 29.81 in
Visibility 10.0 miles
Clouds Mostly Cloudy 4800 ft
Dew Point 65 °F
Humidity 93%
Rainfall 0.66 in
Snow Depth Not available.
UV 0 out of 12
Pollen 4.30 out of 12
Air Quality Not available.
Flu Activity Sporadic
METAR KCID 250052Z 14006KT 10SM BKN048 19/19 A2981 RMK AO2 RAE12 SLP092 P0000 T01940189

More Conditions Fewer Conditions

10-Day Weather Forecast

Almanac

Astronomy

May. 24, 2015 Rise Set
Actual Time
Civil Twilight
Nautical Twilight
Astronomical Twilight
Moon
Length of Visible Light
Length of Day
Tomorrow will be .
, % of the Moon is Illuminated

Today's Extremes

State Highs State Lows

Community

WunderPhotos

Upload Photos

1,823,918 photos uploaded!

WunderBlogs® & News

Nearby

Air Quality

  Air Quality AQ Index Pollutant
Not available.

Snow Depth

Station Depth Elevation

Earthquake Activity

City Distance Mag. Time & Date
Minimum magnitude displayed is 2.5.

Coastal Water Temperatures

Place Temperature

Stations

Nearby Weather Stations

Station Location Temp. Windchill Dew Point Humidity Wind Precip. Elev Updated Type